createdAt,value
2022-10-14T00:02:07.545Z,10.73
2022-10-14T00:04:36.925Z,10.57
2022-10-14T00:07:06.410Z,10.85
2022-10-14T00:09:35.923Z,10.98
2022-10-14T00:12:05.597Z,11.15
2022-10-14T00:14:34.897Z,11.90
2022-10-14T00:17:05.936Z,11.48
2022-10-14T00:22:04.453Z,10.90
2022-10-14T00:24:34.508Z,13.07
2022-10-14T00:27:03.888Z,11.25
2022-10-14T00:29:33.447Z,11.70
2022-10-14T00:32:05.095Z,11.35
2022-10-14T00:34:34.514Z,11.32
2022-10-14T00:37:04.596Z,11.77
2022-10-14T00:39:33.934Z,11.82
2022-10-14T00:42:03.370Z,12.73
2022-10-14T00:45:00.727Z,13.32
2022-10-14T00:47:32.168Z,12.52
2022-10-14T00:50:02.508Z,13.15
2022-10-14T00:52:32.216Z,12.20
2022-10-14T00:55:06.729Z,12.63
2022-10-14T00:57:38.216Z,12.75
2022-10-14T01:00:10.025Z,11.85
2022-10-14T01:02:41.370Z,13.65
2022-10-14T01:05:13.133Z,14.30
2022-10-14T01:08:03.531Z,11.65
2022-10-14T01:10:41.098Z,12.73
2022-10-14T01:13:22.211Z,12.38
2022-10-14T01:16:04.831Z,12.90
2022-10-14T01:18:53.569Z,13.48
2022-10-14T01:21:29.103Z,14.15
2022-10-14T01:24:33.269Z,12.20
2022-10-14T01:27:22.810Z,13.10
2022-10-14T01:30:16.006Z,14.53
2022-10-14T01:33:07.736Z,13.20
2022-10-14T01:35:45.265Z,13.40
2022-10-14T01:38:19.030Z,12.07
2022-10-14T01:40:54.901Z,14.45
2022-10-14T01:43:27.248Z,14.68
2022-10-14T01:46:00.862Z,13.68
2022-10-14T01:48:33.578Z,14.05
2022-10-14T01:51:06.945Z,12.95
2022-10-14T01:53:41.269Z,13.52
2022-10-14T01:56:13.913Z,13.63
2022-10-14T01:58:43.841Z,13.82
2022-10-14T02:01:14.827Z,14.52
2022-10-14T02:03:46.342Z,13.80
2022-10-14T02:06:22.955Z,14.30
2022-10-14T02:09:03.265Z,12.75
2022-10-14T02:11:39.527Z,14.18
2022-10-14T02:14:19.099Z,14.82
2022-10-14T02:16:59.190Z,13.20
2022-10-14T02:19:33.534Z,14.45
2022-10-14T02:22:09.588Z,13.15
2022-10-14T02:24:42.652Z,13.88
2022-10-14T02:27:15.906Z,14.32
2022-10-14T02:29:48.151Z,14.13
2022-10-14T02:32:22.512Z,13.93
2022-10-14T02:34:54.917Z,13.65
2022-10-14T02:37:27.210Z,13.80
2022-10-14T02:40:04.335Z,14.35
2022-10-14T02:42:34.454Z,13.75
2022-10-14T02:45:04.133Z,14.02
2022-10-14T02:47:34.944Z,13.32
2022-10-14T02:50:05.512Z,13.80
2022-10-14T02:52:35.517Z,15.05
2022-10-14T02:55:05.060Z,13.88
2022-10-14T02:57:34.942Z,16.20
2022-10-14T03:00:04.477Z,14.50
2022-10-14T03:02:35.319Z,14.63
2022-10-14T03:05:05.197Z,14.73
2022-10-14T03:07:34.452Z,14.75
2022-10-14T03:10:04.434Z,14.90
2022-10-14T03:12:34.946Z,13.77
2022-10-14T03:15:04.940Z,13.82
2022-10-14T03:17:35.713Z,14.30
2022-10-14T03:20:06.680Z,15.65
2022-10-14T03:22:36.178Z,15.00
2022-10-14T03:25:08.681Z,15.57
2022-10-14T03:27:37.922Z,15.20
2022-10-14T03:30:09.354Z,15.32
2022-10-14T03:32:40.388Z,15.27
2022-10-14T03:35:10.885Z,15.63
2022-10-14T03:37:40.264Z,16.10
2022-10-14T03:40:11.072Z,15.95
2022-10-14T03:42:40.642Z,15.95
2022-10-14T03:45:10.743Z,15.20
2022-10-14T03:47:41.497Z,15.90
2022-10-14T03:50:11.509Z,14.77
2022-10-14T03:52:46.409Z,15.68
2022-10-14T03:55:16.548Z,15.48
2022-10-14T03:57:45.928Z,16.20
2022-10-14T04:00:16.855Z,16.13
2022-10-14T04:02:47.741Z,17.77
2022-10-14T04:05:17.757Z,15.23
2022-10-14T04:07:47.126Z,16.42
2022-10-14T04:10:16.574Z,16.63
2022-10-14T04:12:46.486Z,16.40
2022-10-14T04:15:15.779Z,16.45
2022-10-14T04:17:46.878Z,17.63
2022-10-14T04:20:17.361Z,16.55
2022-10-14T04:22:46.872Z,17.13
2022-10-14T04:25:16.401Z,18.48
2022-10-14T04:27:46.444Z,17.02
2022-10-14T04:30:15.686Z,16.73
2022-10-14T04:32:44.955Z,17.02
2022-10-14T04:35:16.435Z,16.75
2022-10-14T04:37:45.798Z,16.92
2022-10-14T04:40:15.880Z,16.87
2022-10-14T04:42:45.246Z,17.33
2022-10-14T04:45:14.526Z,18.02
2022-10-14T04:47:48.457Z,18.95
2022-10-14T04:50:20.554Z,19.23
2022-10-14T04:52:50.211Z,18.15
2022-10-14T04:55:19.574Z,19.13
2022-10-14T04:57:49.569Z,18.17
2022-10-14T05:00:19.145Z,18.30
2022-10-14T05:02:48.406Z,19.05
2022-10-14T05:05:19.580Z,18.15
2022-10-14T05:10:18.525Z,18.40
2022-10-14T05:12:47.952Z,18.95
2022-10-14T05:15:17.450Z,20.65
2022-10-14T05:17:47.336Z,19.40
2022-10-14T05:20:16.867Z,18.73
2022-10-14T05:22:47.761Z,19.27
2022-10-14T05:25:18.001Z,19.55
2022-10-14T05:27:47.352Z,20.25
2022-10-14T05:30:17.318Z,20.08
2022-10-14T05:32:46.558Z,18.98
2022-10-14T05:35:22.072Z,20.83
2022-10-14T05:38:05.643Z,19.92
2022-10-14T05:40:34.917Z,19.90
2022-10-14T05:43:04.865Z,20.73
2022-10-14T05:45:34.146Z,21.77
2022-10-14T05:48:03.675Z,20.80
2022-10-14T05:50:32.940Z,19.63
2022-10-14T05:53:03.640Z,24.00
2022-10-14T05:55:33.574Z,20.17
2022-10-14T05:58:03.163Z,22.00
2022-10-14T06:00:32.808Z,20.50
2022-10-14T06:03:03.412Z,21.35
2022-10-14T06:05:32.841Z,21.70
2022-10-14T06:08:03.575Z,20.45
2022-10-14T06:13:01.959Z,19.17
2022-10-14T06:15:31.451Z,20.42
2022-10-14T06:18:01.317Z,19.53
2022-10-14T06:20:30.968Z,20.75
2022-10-14T06:23:01.713Z,19.10
2022-10-14T06:25:33.216Z,20.13
2022-10-14T06:28:04.804Z,21.95
2022-10-14T06:30:34.984Z,21.27
2022-10-14T06:33:04.288Z,23.50
2022-10-14T06:35:33.682Z,22.98
2022-10-14T06:38:03.621Z,24.07
2022-10-14T06:40:34.367Z,26.05
2022-10-14T06:43:04.289Z,24.80
2022-10-14T06:45:33.695Z,24.20
2022-10-14T06:48:04.730Z,24.10
2022-10-14T06:50:34.722Z,22.95
2022-10-14T06:53:03.989Z,25.55
2022-10-14T06:55:35.053Z,24.45
2022-10-14T06:58:05.011Z,23.92
2022-10-14T07:00:34.385Z,24.55
2022-10-14T07:03:04.240Z,25.23
2022-10-14T07:05:34.335Z,22.10
2022-10-14T07:08:03.713Z,25.80
2022-10-14T07:10:34.732Z,24.35
2022-10-14T07:13:07.464Z,21.48
2022-10-14T07:15:36.789Z,22.52
2022-10-14T07:18:06.854Z,24.95
2022-10-14T07:20:36.478Z,22.15
2022-10-14T07:23:05.868Z,24.27
2022-10-14T07:25:37.528Z,24.27
2022-10-14T07:28:07.484Z,24.20
2022-10-14T07:30:37.001Z,25.63
2022-10-14T07:33:06.594Z,24.73
2022-10-14T07:35:35.986Z,23.67
2022-10-14T07:38:05.877Z,24.80
2022-10-14T07:40:36.605Z,24.88
2022-10-14T07:43:06.100Z,25.10
2022-10-14T07:45:36.662Z,22.77
2022-10-14T07:48:06.389Z,22.88
2022-10-14T07:50:36.290Z,22.13
2022-10-14T07:53:05.728Z,23.33
2022-10-14T07:55:37.358Z,25.30
2022-10-14T08:00:37.220Z,25.50
2022-10-14T08:03:07.337Z,27.23
2022-10-14T08:05:38.400Z,23.85
2022-10-14T08:08:08.422Z,24.65
2022-10-14T08:10:40.684Z,25.83
2022-10-14T08:13:10.187Z,24.77
2022-10-14T08:15:43.006Z,24.93
2022-10-14T08:18:13.292Z,25.55
2022-10-14T08:23:17.454Z,26.75
2022-10-14T08:25:51.637Z,26.20
2022-10-14T08:28:20.935Z,23.20
2022-10-14T08:30:53.062Z,24.83
2022-10-14T08:33:22.308Z,26.13
2022-10-14T08:35:54.134Z,26.42
2022-10-14T08:38:26.472Z,25.75
2022-10-14T08:41:08.528Z,25.58
2022-10-14T08:43:42.486Z,26.20
2022-10-14T08:46:20.685Z,25.80
2022-10-14T08:48:52.067Z,25.15
2022-10-14T08:51:22.654Z,26.42
2022-10-14T08:53:56.520Z,26.73
2022-10-14T08:56:28.823Z,26.88
2022-10-14T09:01:45.036Z,24.88
2022-10-14T09:04:16.554Z,25.10
2022-10-14T09:06:49.298Z,25.65
2022-10-14T09:09:24.242Z,24.50
2022-10-14T09:12:00.060Z,24.60
2022-10-14T09:14:33.576Z,25.38
2022-10-14T09:17:09.150Z,24.77
2022-10-14T09:19:47.100Z,24.52
2022-10-14T09:22:17.633Z,26.45
2022-10-14T09:24:48.689Z,26.92
2022-10-14T09:27:22.472Z,26.92
2022-10-14T09:29:55.360Z,25.83
2022-10-14T09:32:30.891Z,24.45
2022-10-14T09:35:01.020Z,24.35
2022-10-14T09:37:32.224Z,25.90
2022-10-14T09:45:12.017Z,23.10
2022-10-14T09:47:51.517Z,26.17
2022-10-14T09:50:31.856Z,24.15
2022-10-14T09:53:09.344Z,26.10
2022-10-14T09:55:48.307Z,24.98
2022-10-14T09:58:31.076Z,24.17
2022-10-14T10:01:02.238Z,23.77
2022-10-14T10:03:34.082Z,23.17
2022-10-14T10:06:11.617Z,24.98
2022-10-14T10:08:43.239Z,23.88
2022-10-14T10:11:14.352Z,23.77
2022-10-14T10:13:48.478Z,23.90
2022-10-14T10:16:24.559Z,24.00
2022-10-14T10:18:55.829Z,24.50
2022-10-14T10:23:59.410Z,22.73
2022-10-14T10:26:32.308Z,25.92
2022-10-14T10:29:06.015Z,24.50
2022-10-14T10:31:51.944Z,24.73
2022-10-14T10:35:03.464Z,23.67
2022-10-14T10:37:34.944Z,21.58
2022-10-14T10:40:37.431Z,23.13
2022-10-14T10:43:22.048Z,22.15
2022-10-14T10:46:11.597Z,22.60
2022-10-14T10:48:48.271Z,23.83
2022-10-14T10:51:29.804Z,23.52
2022-10-14T10:54:15.850Z,24.13
2022-10-14T10:56:51.511Z,23.95
2022-10-14T10:59:45.317Z,24.05
2022-10-14T11:03:00.927Z,26.15
2022-10-14T11:05:56.247Z,23.88
2022-10-14T11:09:09.757Z,26.38
2022-10-14T11:12:08.095Z,24.23
2022-10-14T11:14:59.877Z,23.80
2022-10-14T11:17:35.794Z,24.65
2022-10-14T11:20:18.032Z,24.55
2022-10-14T11:22:59.878Z,25.55
2022-10-14T11:25:46.515Z,23.75
2022-10-14T11:28:25.567Z,23.25
2022-10-14T11:31:03.035Z,22.77
2022-10-14T11:33:46.001Z,23.80
2022-10-14T11:36:25.745Z,22.02
2022-10-14T11:39:33.324Z,23.33
2022-10-14T11:42:15.376Z,23.58
2022-10-14T11:44:45.659Z,23.27
2022-10-14T11:47:22.156Z,23.75
2022-10-14T11:49:59.486Z,22.15
2022-10-14T11:52:34.391Z,23.45
2022-10-14T11:55:09.840Z,20.70
2022-10-14T11:57:46.011Z,22.02
2022-10-14T12:00:18.016Z,23.45
2022-10-14T12:02:54.651Z,23.50
2022-10-14T12:05:31.975Z,23.80
2022-10-14T12:08:12.799Z,22.75
2022-10-14T12:10:46.917Z,21.33
2022-10-14T12:13:19.094Z,22.15
2022-10-14T12:15:51.960Z,20.98
2022-10-14T12:18:22.180Z,21.17
2022-10-14T12:20:57.493Z,21.40
2022-10-14T12:23:35.650Z,22.38
2022-10-14T12:26:11.268Z,23.88
2022-10-14T12:28:43.299Z,22.08
2022-10-14T12:31:36.883Z,22.58
2022-10-14T12:34:37.676Z,20.92
2022-10-14T12:37:45.623Z,17.95
2022-10-14T12:40:30.726Z,21.80
2022-10-14T12:43:15.647Z,19.65
2022-10-14T12:46:14.917Z,20.60
2022-10-14T12:48:51.851Z,19.00
2022-10-14T12:51:25.165Z,17.52
2022-10-14T12:54:06.571Z,15.43
2022-10-14T12:56:41.127Z,14.00
2022-10-14T12:59:21.970Z,13.90
2022-10-14T13:01:57.919Z,12.77
2022-10-14T13:04:28.655Z,15.65
2022-10-14T13:07:41.934Z,13.02
2022-10-14T13:10:46.947Z,13.25
2022-10-14T13:13:59.778Z,15.20
2022-10-14T13:17:12.065Z,14.75
2022-10-14T13:19:48.321Z,14.90
2022-10-14T13:22:47.569Z,14.05
2022-10-14T13:25:22.453Z,13.18
2022-10-14T13:28:03.749Z,15.52
2022-10-14T13:30:41.028Z,13.27
2022-10-14T13:33:18.005Z,13.05
2022-10-14T13:35:55.345Z,13.75
2022-10-14T13:38:25.726Z,12.45
2022-10-14T13:40:57.318Z,12.18
2022-10-14T13:43:30.222Z,11.27
2022-10-14T13:46:07.119Z,12.35
2022-10-14T13:48:40.750Z,11.65
2022-10-14T13:51:42.409Z,11.50
2022-10-14T13:54:18.522Z,11.70
2022-10-14T13:57:38.375Z,12.43
2022-10-14T14:00:28.148Z,12.07
2022-10-14T14:02:44.250Z,12.32
2022-10-14T14:05:20.328Z,13.27
2022-10-14T14:11:03.614Z,11.30
2022-10-14T14:13:34.201Z,11.85
2022-10-14T14:16:04.314Z,12.13
2022-10-14T14:21:30.554Z,12.60
2022-10-14T14:24:02.416Z,12.20
2022-10-14T14:26:36.337Z,10.85
2022-10-14T14:29:07.357Z,13.02
2022-10-14T14:34:28.535Z,9.88
2022-10-14T14:37:17.257Z,9.57
2022-10-14T14:39:59.010Z,12.55
2022-10-14T14:42:29.550Z,14.05
2022-10-14T14:45:04.800Z,13.38
2022-10-14T14:47:34.912Z,14.43
2022-10-14T14:53:01.741Z,13.77
2022-10-14T14:55:45.085Z,13.60
2022-10-14T14:58:26.049Z,14.10
2022-10-14T15:00:56.509Z,13.15
2022-10-14T15:03:28.245Z,14.97
2022-10-14T15:06:01.490Z,15.35
2022-10-14T15:08:34.454Z,15.02
2022-10-14T15:11:04.302Z,15.45
2022-10-14T15:13:45.947Z,16.20
2022-10-14T15:16:15.621Z,17.27
2022-10-14T15:18:44.906Z,17.23
2022-10-14T15:21:20.648Z,19.73
2022-10-14T15:24:03.564Z,20.17
2022-10-14T15:26:35.023Z,19.17
2022-10-14T15:29:13.033Z,19.38
2022-10-14T15:31:44.739Z,20.60
2022-10-14T15:34:21.007Z,21.70
2022-10-14T15:36:54.384Z,20.42
2022-10-14T15:39:24.292Z,21.38
2022-10-14T15:41:53.921Z,19.75
2022-10-14T15:44:23.601Z,21.20
2022-10-14T15:47:10.401Z,20.08
2022-10-14T15:49:43.115Z,21.00
2022-10-14T15:52:17.763Z,20.48
2022-10-14T15:54:49.496Z,20.45
2022-10-14T15:57:19.026Z,21.23
2022-10-14T15:59:48.304Z,28.98
2022-10-14T16:02:22.346Z,22.77
2022-10-14T16:05:18.973Z,23.33
2022-10-14T16:07:44.160Z,21.63
2022-10-14T16:10:16.091Z,21.88
2022-10-14T16:12:46.474Z,23.38
2022-10-14T16:15:28.305Z,24.08
2022-10-14T16:17:58.386Z,23.65
2022-10-14T16:20:28.172Z,21.98
2022-10-14T16:23:00.217Z,22.45
2022-10-14T16:25:34.851Z,22.60
2022-10-14T16:28:07.587Z,20.58
2022-10-14T16:30:41.201Z,23.05
2022-10-14T16:35:41.280Z,23.17
2022-10-14T16:38:13.127Z,24.58
2022-10-14T16:40:42.816Z,22.83
2022-10-14T16:43:12.354Z,23.70
2022-10-14T16:45:41.941Z,24.02
2022-10-14T16:48:11.659Z,25.80
2022-10-14T16:50:41.217Z,27.08
2022-10-14T16:53:29.065Z,24.25
2022-10-14T16:55:59.082Z,26.83
2022-10-14T16:58:29.172Z,25.27
2022-10-14T17:00:58.670Z,24.10
2022-10-14T17:03:28.442Z,26.27
2022-10-14T17:06:00.728Z,25.77
2022-10-14T17:08:32.099Z,27.73
2022-10-14T17:11:01.586Z,24.73
2022-10-14T17:13:31.607Z,26.67
2022-10-14T17:16:02.259Z,24.27
2022-10-14T17:18:34.849Z,24.65
2022-10-14T17:21:07.290Z,25.20
2022-10-14T17:23:41.432Z,25.17
2022-10-14T17:26:12.430Z,26.48
2022-10-14T17:28:43.074Z,25.95
2022-10-14T17:31:16.461Z,26.60
2022-10-14T17:33:46.377Z,27.02
2022-10-14T17:36:19.701Z,26.38
2022-10-14T17:38:52.690Z,27.45
2022-10-14T17:41:22.842Z,25.70
2022-10-14T17:43:53.408Z,29.65
2022-10-14T17:46:25.361Z,27.38
2022-10-14T17:48:56.660Z,27.98
2022-10-14T17:51:26.767Z,28.67
2022-10-14T17:53:58.853Z,27.65
2022-10-14T17:56:29.349Z,29.83
2022-10-14T17:59:07.573Z,29.33
2022-10-14T18:02:00.806Z,27.95
2022-10-14T18:04:29.233Z,31.00
2022-10-14T18:06:59.275Z,30.83
2022-10-14T18:09:30.289Z,29.67
2022-10-14T18:12:14.990Z,31.08
2022-10-14T18:14:45.108Z,32.25
2022-10-14T18:17:14.436Z,32.55
2022-10-14T18:19:47.275Z,32.10
2022-10-14T18:22:20.693Z,33.35
2022-10-14T18:24:52.367Z,33.20
2022-10-14T18:27:22.261Z,31.92
2022-10-14T18:29:51.991Z,36.13
2022-10-14T18:32:21.599Z,32.92
2022-10-14T18:34:51.205Z,34.53
2022-10-14T18:37:20.843Z,32.95
2022-10-14T18:39:51.566Z,32.05
2022-10-14T18:42:21.274Z,33.25
2022-10-14T18:44:50.841Z,34.57
2022-10-14T18:47:20.200Z,32.65
2022-10-14T18:49:49.968Z,34.03
2022-10-14T18:52:21.386Z,31.98
2022-10-14T18:54:52.782Z,33.50
2022-10-14T18:57:22.677Z,31.25
2022-10-14T18:59:52.653Z,32.95
2022-10-14T19:02:23.318Z,33.60
2022-10-14T19:04:53.182Z,33.90
2022-10-14T19:07:22.455Z,36.00
2022-10-14T19:09:57.030Z,35.53
2022-10-14T19:12:45.407Z,36.13
2022-10-14T19:15:14.922Z,35.38
2022-10-14T19:17:47.032Z,38.67
2022-10-14T19:20:17.754Z,34.90
2022-10-14T19:22:47.118Z,35.85
2022-10-14T19:25:17.997Z,35.90
2022-10-14T19:27:47.925Z,35.28
2022-10-14T19:30:17.254Z,35.38
2022-10-14T19:32:46.581Z,36.97
2022-10-14T19:37:53.490Z,37.00
2022-10-14T19:40:24.958Z,38.65
2022-10-14T19:42:54.334Z,36.20
2022-10-14T19:45:24.133Z,37.83
2022-10-14T19:47:53.406Z,38.20
2022-10-14T19:50:22.868Z,37.58
2022-10-14T19:52:52.985Z,38.55
2022-10-14T19:55:23.686Z,40.65
2022-10-14T19:57:56.337Z,37.92
2022-10-14T20:00:26.426Z,35.78
2022-10-14T20:02:55.793Z,37.10
2022-10-14T20:05:25.513Z,37.08
2022-10-14T20:07:55.561Z,37.55
2022-10-14T20:10:26.769Z,36.95
2022-10-14T20:12:57.298Z,37.13
2022-10-14T20:15:26.568Z,36.88
2022-10-14T20:17:56.580Z,39.08
2022-10-14T20:20:27.034Z,39.65
2022-10-14T20:22:56.977Z,37.73
2022-10-14T20:25:28.553Z,37.10
2022-10-14T20:27:58.653Z,38.53
2022-10-14T20:30:27.952Z,38.00
2022-10-14T20:32:57.434Z,37.22
2022-10-14T20:38:01.447Z,38.88
2022-10-14T20:40:32.630Z,39.33
2022-10-14T20:45:31.011Z,38.88
2022-10-14T20:48:00.688Z,37.33
2022-10-14T20:50:29.943Z,37.78
2022-10-14T20:53:01.539Z,40.38
2022-10-14T20:55:34.442Z,39.50
2022-10-14T20:58:03.810Z,39.67
2022-10-14T21:00:33.516Z,40.47
2022-10-14T21:03:02.789Z,42.53
2022-10-14T21:05:32.134Z,43.58
2022-10-14T21:08:02.132Z,40.30
2022-10-14T21:10:33.141Z,41.20
2022-10-14T21:13:03.025Z,41.15
2022-10-14T21:15:32.880Z,39.83
2022-10-14T21:18:02.197Z,41.05
2022-10-14T21:20:32.255Z,39.58
2022-10-14T21:23:01.594Z,38.63
2022-10-14T21:25:32.396Z,42.97
2022-10-14T21:28:02.458Z,41.53
2022-10-14T21:30:31.798Z,43.58
2022-10-14T21:33:01.085Z,43.55
2022-10-14T21:35:31.235Z,43.97
2022-10-14T21:38:00.625Z,42.85
2022-10-14T21:40:29.892Z,39.50
2022-10-14T21:43:00.973Z,42.95
2022-10-14T21:45:30.521Z,41.53
2022-10-14T21:48:00.127Z,39.97
2022-10-14T21:50:30.559Z,43.05
2022-10-14T21:53:00.215Z,40.28
2022-10-14T21:55:29.589Z,41.60
2022-10-14T21:58:00.960Z,42.08
2022-10-14T22:00:30.189Z,41.53
2022-10-14T22:03:00.224Z,39.33
2022-10-14T22:05:29.493Z,41.47
2022-10-14T22:07:58.920Z,39.72
2022-10-14T22:10:45.115Z,42.97
2022-10-14T22:13:15.873Z,42.13
2022-10-14T22:15:45.794Z,37.35
2022-10-14T22:18:15.133Z,39.47
2022-10-14T22:20:44.409Z,37.63
2022-10-14T22:23:14.900Z,37.33
2022-10-14T22:25:44.165Z,40.28
2022-10-14T22:28:14.934Z,40.35
2022-10-14T22:30:44.602Z,36.85
2022-10-14T22:33:13.953Z,38.53
2022-10-14T22:35:44.322Z,38.45
2022-10-14T22:38:14.433Z,41.42
2022-10-14T22:40:43.945Z,39.90
2022-10-14T22:43:14.680Z,38.83
2022-10-14T22:45:44.783Z,37.67
2022-10-14T22:48:14.044Z,36.17
2022-10-14T22:50:43.316Z,37.05
2022-10-14T22:53:13.203Z,35.85
2022-10-14T22:55:42.449Z,40.15
2022-10-14T22:58:12.862Z,36.15
2022-10-14T23:00:44.262Z,37.55
2022-10-14T23:03:13.901Z,38.83
2022-10-14T23:05:44.209Z,37.10
2022-10-14T23:08:15.148Z,36.80
2022-10-14T23:10:45.550Z,39.55
2022-10-14T23:13:14.963Z,38.25
2022-10-14T23:15:55.690Z,39.78
2022-10-14T23:18:25.798Z,38.53
2022-10-14T23:20:55.465Z,36.92
2022-10-14T23:23:25.118Z,38.38
2022-10-14T23:25:55.009Z,36.85
2022-10-14T23:28:24.351Z,38.22
2022-10-14T23:30:55.086Z,38.25
2022-10-14T23:35:53.754Z,36.47
2022-10-14T23:38:23.380Z,36.72
2022-10-14T23:40:53.227Z,37.92
2022-10-14T23:43:22.473Z,37.63
2022-10-14T23:48:23.123Z,36.40
2022-10-14T23:50:52.541Z,34.03
2022-10-14T23:53:22.753Z,35.17
2022-10-14T23:55:52.412Z,34.15
2022-10-14T23:58:21.700Z,36.58
